createdAt,value
2018-01-25T00:04:55.525Z,75.24
2018-01-25T00:10:59.209Z,75.20
2018-01-25T00:17:02.631Z,75.20
2018-01-25T00:23:06.047Z,75.31
2018-01-25T00:29:10.280Z,75.31
2018-01-25T00:35:13.698Z,75.37
2018-01-25T00:41:17.093Z,75.57
2018-01-25T00:47:20.516Z,75.41
2018-01-25T00:53:23.971Z,75.65
2018-01-25T00:59:28.179Z,75.99
2018-01-25T01:05:31.615Z,76.20
2018-01-25T01:11:35.028Z,76.02
2018-01-25T01:17:38.467Z,76.07
2018-01-25T01:23:42.643Z,76.18
2018-01-25T01:29:46.120Z,76.12
2018-01-25T01:35:49.543Z,75.96
2018-01-25T01:41:53.700Z,75.96
2018-01-25T01:47:57.133Z,76.33
2018-01-25T01:54:00.547Z,76.23
2018-01-25T02:00:03.971Z,76.14
2018-01-25T02:06:07.394Z,75.95
2018-01-25T02:12:10.814Z,76.10
2018-01-25T02:18:14.231Z,76.10
2018-01-25T02:24:17.651Z,76.04
2018-01-25T02:30:21.076Z,75.84
2018-01-25T02:36:24.499Z,76.06
2018-01-25T02:42:27.929Z,76.25
2018-01-25T02:48:31.377Z,76.14
2018-01-25T02:54:34.840Z,76.37
2018-01-25T03:00:38.275Z,76.57
2018-01-25T03:06:41.683Z,76.69
2018-01-25T03:12:45.114Z,76.80
2018-01-25T03:18:48.536Z,77.44
2018-01-25T03:24:51.938Z,77.30
2018-01-25T03:30:55.398Z,76.76
2018-01-25T03:36:59.060Z,76.81
2018-01-25T03:43:03.250Z,76.90
2018-01-25T03:49:06.668Z,77.30
2018-01-25T03:55:10.093Z,78.08
2018-01-25T04:01:13.548Z,78.90
2018-01-25T04:07:17.724Z,79.51
2018-01-25T04:13:21.148Z,79.48
2018-01-25T04:19:24.565Z,78.97
2018-01-25T04:25:28.337Z,78.58
2018-01-25T04:31:31.856Z,78.99
2018-01-25T04:37:35.279Z,78.69
2018-01-25T04:43:38.697Z,78.88
2018-01-25T04:49:42.110Z,78.92
2018-01-25T04:55:45.543Z,79.22
2018-01-25T05:01:49.749Z,80.08
2018-01-25T05:07:53.172Z,82.81
2018-01-25T05:13:56.604Z,85.47
2018-01-25T05:20:00.081Z,88.33
2018-01-25T05:26:03.494Z,90.04
2018-01-25T05:32:06.904Z,91.09
2018-01-25T05:38:10.317Z,91.29
2018-01-25T05:44:13.777Z,91.68
2018-01-25T05:50:17.192Z,92.12
2018-01-25T05:56:20.590Z,92.40
2018-01-25T06:02:24.032Z,92.65
2018-01-25T06:08:27.445Z,92.90
2018-01-25T06:14:30.889Z,93.03
2018-01-25T06:20:34.319Z,92.88
2018-01-25T06:26:37.788Z,92.83
2018-01-25T06:32:41.242Z,92.66
2018-01-25T06:38:44.676Z,92.38
2018-01-25T06:44:48.487Z,91.98
2018-01-25T06:50:51.911Z,92.19
2018-01-25T06:56:55.355Z,91.02
2018-01-25T07:02:58.789Z,90.51
2018-01-25T07:09:03.327Z,90.84
2018-01-25T07:15:07.481Z,91.52
2018-01-25T07:21:10.929Z,91.82
2018-01-25T07:27:14.326Z,91.47
2018-01-25T07:33:17.746Z,91.34
2018-01-25T07:39:21.178Z,91.41
2018-01-25T07:45:24.591Z,91.21
2018-01-25T07:51:28.015Z,91.37
2018-01-25T07:57:36.872Z,90.70
2018-01-25T08:03:40.308Z,90.44
2018-01-25T08:09:43.739Z,90.57
2018-01-25T08:15:47.375Z,90.30
2018-01-25T08:21:50.774Z,89.60
2018-01-25T08:27:54.243Z,89.84
2018-01-25T08:33:57.671Z,89.29
2018-01-25T08:40:01.075Z,89.47
2018-01-25T08:46:05.259Z,89.16
2018-01-25T08:52:08.751Z,89.11
2018-01-25T08:58:12.160Z,89.38
2018-01-25T09:04:15.578Z,89.29
2018-01-25T09:10:19.012Z,89.04
2018-01-25T09:16:22.416Z,88.76
2018-01-25T09:22:25.831Z,88.34
2018-01-25T09:28:30.014Z,88.06
2018-01-25T09:34:33.698Z,87.72
2018-01-25T09:40:37.099Z,87.46
2018-01-25T09:46:41.312Z,86.21
2018-01-25T09:52:44.752Z,86.51
2018-01-25T09:58:48.942Z,87.33
2018-01-25T10:04:52.360Z,86.42
2018-01-25T10:10:55.756Z,86.28
2018-01-25T10:16:59.251Z,85.95
2018-01-25T10:23:03.433Z,84.71
2018-01-25T10:29:06.842Z,84.82
2018-01-25T10:35:10.336Z,85.24
2018-01-25T10:41:14.525Z,85.37
2018-01-25T10:47:17.954Z,86.10
2018-01-25T10:53:21.349Z,86.53
2018-01-25T10:59:24.763Z,85.99
2018-01-25T11:05:28.444Z,84.86
2018-01-25T11:11:32.610Z,84.75
2018-01-25T11:17:36.030Z,83.78
2018-01-25T11:23:39.451Z,82.56
2018-01-25T11:29:42.866Z,82.10
2018-01-25T11:35:46.283Z,81.17
2018-01-25T11:41:49.698Z,82.02
2018-01-25T11:47:53.111Z,82.09
2018-01-25T11:53:57.293Z,83.95
2018-01-25T12:00:00.690Z,83.91
2018-01-25T12:06:04.096Z,83.94
2018-01-25T12:12:07.490Z,85.07
2018-01-25T12:18:11.714Z,85.17
2018-01-25T12:24:15.228Z,85.17
2018-01-25T12:30:18.571Z,84.98
2018-01-25T12:36:22.740Z,85.70
2018-01-25T12:42:26.146Z,85.45
2018-01-25T12:48:30.907Z,85.59
2018-01-25T12:54:34.306Z,85.45
2018-01-25T13:00:37.713Z,84.61
2018-01-25T13:06:41.875Z,83.22
2018-01-25T13:12:45.296Z,83.56
2018-01-25T13:18:48.708Z,83.62
2018-01-25T13:24:52.141Z,82.82
2018-01-25T13:30:55.570Z,83.51
2018-01-25T13:36:58.974Z,82.91
2018-01-25T13:43:02.378Z,82.90
2018-01-25T13:49:05.792Z,79.90
2018-01-25T13:55:09.188Z,77.52
2018-01-25T14:01:12.629Z,78.39
2018-01-25T14:07:16.079Z,78.16
2018-01-25T14:13:19.512Z,77.78
2018-01-25T14:19:22.959Z,79.22
2018-01-25T14:25:26.366Z,79.49
2018-01-25T14:31:29.794Z,78.78
2018-01-25T14:37:33.210Z,78.84
2018-01-25T14:43:36.643Z,79.52
2018-01-25T14:49:40.061Z,79.62
2018-01-25T14:55:43.479Z,79.58
2018-01-25T15:01:46.880Z,80.43
2018-01-25T15:07:50.306Z,80.91
2018-01-25T15:13:53.698Z,80.95
2018-01-25T15:19:57.116Z,83.09
2018-01-25T15:26:00.822Z,82.99
2018-01-25T15:32:04.226Z,83.81
2018-01-25T15:38:07.633Z,84.60
2018-01-25T15:44:11.852Z,85.33
2018-01-25T15:50:15.246Z,85.57
2018-01-25T15:56:18.687Z,86.27
2018-01-25T16:02:22.084Z,86.18
2018-01-25T16:08:25.539Z,85.93
2018-01-25T16:14:29.707Z,86.28
2018-01-25T16:20:33.140Z,86.04
2018-01-25T16:26:36.547Z,86.39
2018-01-25T16:32:39.931Z,86.99
2018-01-25T16:38:44.160Z,87.48
2018-01-25T16:44:47.572Z,87.73
2018-01-25T16:50:51.330Z,88.18
2018-01-25T16:56:54.746Z,88.34
2018-01-25T17:02:58.192Z,88.68
2018-01-25T17:09:01.625Z,89.28
2018-01-25T17:15:07.899Z,89.57
2018-01-25T17:21:11.297Z,89.76
2018-01-25T17:27:14.714Z,90.01
2018-01-25T17:33:18.140Z,90.13
2018-01-25T17:39:22.012Z,90.47
2018-01-25T17:45:25.440Z,90.56
2018-01-25T17:51:28.831Z,90.66
2018-01-25T17:57:32.235Z,91.15
2018-01-25T18:03:35.633Z,91.06
2018-01-25T18:09:39.826Z,91.06
2018-01-25T18:15:43.258Z,91.08
2018-01-25T18:21:46.672Z,91.30
2018-01-25T18:27:50.102Z,91.56
2018-01-25T18:33:54.303Z,91.17
2018-01-25T18:39:57.687Z,91.42
2018-01-25T18:46:01.395Z,91.78
2018-01-25T18:52:04.823Z,91.73
2018-01-25T18:58:08.995Z,91.87
2018-01-25T19:04:12.448Z,91.84
2018-01-25T19:10:15.870Z,91.81
2018-01-25T19:16:19.293Z,92.08
2018-01-25T19:22:22.706Z,92.20
2018-01-25T19:28:26.159Z,92.33
2018-01-25T19:34:30.347Z,92.01
2018-01-25T19:40:33.771Z,92.41
2018-01-25T19:46:37.644Z,92.30
2018-01-25T19:52:41.823Z,92.35
2018-01-25T19:58:45.280Z,92.45
2018-01-25T20:04:49.617Z,92.15
2018-01-25T20:10:53.070Z,92.34
2018-01-25T20:16:56.484Z,92.20
2018-01-25T20:22:59.904Z,92.52
2018-01-25T20:29:03.714Z,92.75
2018-01-25T20:35:07.898Z,92.63
2018-01-25T20:41:11.335Z,92.30
2018-01-25T20:47:14.744Z,92.23
2018-01-25T20:53:18.139Z,91.92
2018-01-25T20:59:21.530Z,91.98
2018-01-25T21:05:25.716Z,92.44
2018-01-25T21:11:29.094Z,92.41
2018-01-25T21:17:33.265Z,92.48
2018-01-25T21:23:36.678Z,92.40
2018-01-25T21:29:40.095Z,92.30
2018-01-25T21:35:43.517Z,92.32
2018-01-25T21:41:46.916Z,92.32
2018-01-25T21:47:50.331Z,92.39
2018-01-25T21:53:53.766Z,92.45
2018-01-25T21:59:57.186Z,92.88
2018-01-25T22:06:00.599Z,92.78
2018-01-25T22:12:03.983Z,92.66
2018-01-25T22:18:07.410Z,93.01
2018-01-25T22:24:11.608Z,94.06
2018-01-25T22:30:15.039Z,92.72
2018-01-25T22:36:18.460Z,92.87
2018-01-25T22:42:21.870Z,92.89
2018-01-25T22:48:25.259Z,93.22
2018-01-25T22:54:28.669Z,93.20
2018-01-25T23:00:39.983Z,92.94
2018-01-25T23:06:43.398Z,92.57
2018-01-25T23:12:46.820Z,93.20
2018-01-25T23:18:50.251Z,93.36
2018-01-25T23:24:53.665Z,93.46
2018-01-25T23:30:57.052Z,93.61
2018-01-25T23:37:00.481Z,93.68
2018-01-25T23:43:03.889Z,93.81
2018-01-25T23:49:08.079Z,93.71
2018-01-25T23:55:11.520Z,93.58
